Time;durP1;ratioP1;P1;durP2;ratioP2;P2;SDS_P1;SDS_P2;PMS_P1;PMS_P2;Temp;Humidity;BMP_temperature;BMP_pressure;BME280_temperature;BME280_humidity;BME280_pressure;Samples;Min_cycle;Max_cycle;Signal;HPM_P1;HPM_P2
2023/06/11 00:02:21;;;;;;;2.03;1.00;;;;;;;;;;5086933;28;20044;-84
2023/06/11 00:04:51;;;;;;;5.47;1.20;;;;;;;;;;5088511;28;20052;-85
2023/06/11 00:07:18;;;;;;;1.73;1.10;;;;;;;;;;5085371;28;20761;-84
2023/06/11 00:09:51;;;;;;;2.28;1.20;;;;;;;;;;5100933;28;20052;-85
2023/06/11 00:12:19;;;;;;;6.35;1.20;;;;;;;;;;5084106;28;20060;-85
2023/06/11 00:14:52;;;;;;;4.10;1.35;;;;;;;;;;5081046;28;20052;-85
2023/06/11 00:17:24;;;;;;;2.60;1.25;;;;;;;;;;5072178;28;20051;-85
2023/06/11 00:19:55;;;;;;;4.70;1.60;;;;;;;;;;5077732;28;20060;-85
2023/06/11 00:22:26;;;;;;;2.20;0.95;;;;;;;;;;5083658;28;20052;-85
2023/06/11 00:24:59;;;;;;;5.05;1.52;;;;;;;;;;5081809;28;20079;-85
2023/06/11 00:27:27;;;;;;;6.35;1.48;;;;;;;;;;5084477;28;20106;-84
2023/06/11 00:29:55;;;;;;;4.05;1.17;;;;;;;;;;5080247;28;20052;-84
2023/06/11 00:32:27;;;;;;;3.55;1.38;;;;;;;;;;5084681;28;20060;-86
2023/06/11 00:34:57;;;;;;;5.55;1.40;;;;;;;;;;5079878;28;20408;-84
2023/06/11 00:37:25;;;;;;;3.00;1.20;;;;;;;;;;5081764;28;20507;-84
2023/06/11 00:39:53;;;;;;;3.72;1.33;;;;;;;;;;5082605;28;20056;-86
2023/06/11 00:42:27;;;;;;;3.90;1.20;;;;;;;;;;5084489;28;20048;-85
2023/06/11 00:45:03;;;;;;;1.90;1.00;;;;;;;;;;5078293;28;20504;-85
2023/06/11 00:47:36;;;;;;;7.38;1.42;;;;;;;;;;5084089;28;20040;-83
2023/06/11 00:50:07;;;;;;;2.33;1.20;;;;;;;;;;5082507;28;20507;-84
2023/06/11 00:52:36;;;;;;;4.28;1.40;;;;;;;;;;5081331;28;20045;-85
2023/06/11 00:55:04;;;;;;;3.95;1.38;;;;;;;;;;5080664;28;20481;-85
2023/06/11 00:57:40;;;;;;;5.57;1.10;;;;;;;;;;5079193;28;20496;-85
2023/06/11 01:00:13;;;;;;;1.60;0.82;;;;;;;;;;5078908;28;20081;-85
2023/06/11 01:02:44;;;;;;;5.50;1.40;;;;;;;;;;5081556;28;20051;-85
2023/06/11 01:05:21;;;;;;;3.53;1.20;;;;;;;;;;5081890;28;20492;-84
2023/06/11 01:07:55;;;;;;;2.92;1.10;;;;;;;;;;5077600;28;20052;-83
2023/06/11 01:10:29;;;;;;;5.25;1.38;;;;;;;;;;5082791;28;20048;-84
2023/06/11 01:13:03;;;;;;;3.90;1.10;;;;;;;;;;5087667;28;21980;-83
2023/06/11 01:15:30;;;;;;;3.65;1.40;;;;;;;;;;5081007;28;20423;-84
2023/06/11 01:18:06;;;;;;;2.90;1.13;;;;;;;;;;5088277;28;20052;-84
2023/06/11 01:20:42;;;;;;;6.68;1.33;;;;;;;;;;5083026;28;20055;-84
2023/06/11 01:23:17;;;;;;;3.22;1.02;;;;;;;;;;5078926;28;20056;-84
2023/06/11 01:25:50;;;;;;;2.75;1.40;;;;;;;;;;5080565;28;20066;-85
2023/06/11 01:28:26;;;;;;;4.63;1.80;;;;;;;;;;5080648;28;20428;-84
2023/06/11 01:30:57;;;;;;;1.95;1.13;;;;;;;;;;5080318;28;20052;-84
2023/06/11 01:33:35;;;;;;;4.88;1.35;;;;;;;;;;5082887;28;20048;-84
2023/06/11 01:36:10;;;;;;;5.97;1.40;;;;;;;;;;5082984;28;22291;-85
2023/06/11 01:38:42;;;;;;;3.67;1.30;;;;;;;;;;5089319;28;20052;-85
2023/06/11 01:41:16;;;;;;;;;;;;;;;;;;5083769;28;20048;-85
2023/06/11 01:43:50;;;;;;;1.95;1.00;;;;;;;;;;5080954;28;19920;-85
2023/06/11 01:46:18;;;;;;;5.70;1.42;;;;;;;;;;5071754;28;20045;-85
2023/06/11 01:48:46;;;;;;;2.92;1.40;;;;;;;;;;5088987;28;20040;-84
2023/06/11 01:51:21;;;;;;;3.40;1.60;;;;;;;;;;5083819;28;20037;-85
2023/06/11 01:53:55;;;;;;;4.32;1.45;;;;;;;;;;5077017;28;20044;-85
2023/06/11 01:56:24;;;;;;;2.75;1.33;;;;;;;;;;5080271;28;20369;-85
2023/06/11 01:58:57;;;;;;;;;;;;;;;;;;5081001;28;20048;-84
2023/06/11 02:01:28;;;;;;;;;;;;;;;;;;5081044;28;19921;-85
2023/06/11 02:04:01;;;;;;;;;;;;;;;;;;5082144;28;19935;-83
2023/06/11 02:06:29;;;;;;;;;;;;;;;;;;5081248;28;19927;-85
2023/06/11 02:08:57;;;;;;;;;;;;;;;;;;5072127;28;19920;-85
2023/06/11 02:11:29;;;;;;;;;;;;;;;;;;5075052;28;19931;-85
2023/06/11 02:13:57;;;;;;;;;;;;;;;;;;5083722;28;19921;-85
2023/06/11 02:16:25;;;;;;;;;;;;;;;;;;5080765;28;19931;-84
2023/06/11 02:18:57;;;;;;;;;;;;;;;;;;5082050;28;19920;-85
2023/06/11 02:21:25;;;;;;;;;;;;;;;;;;5083924;28;19924;-84
2023/06/11 02:23:52;;;;;;;;;;;;;;;;;;5078099;28;19925;-84
2023/06/11 02:26:25;;;;;;;;;;;;;;;;;;5083120;28;20594;-85
2023/06/11 02:28:52;;;;;;;;;;;;;;;;;;5083214;28;19928;-85
2023/06/11 02:31:21;;;;;;;;;;;;;;;;;;5101308;28;20419;-85
2023/06/11 02:33:48;;;;;;;;;;;;;;;;;;5079986;28;20280;-83
2023/06/11 02:36:16;;;;;;;;;;;;;;;;;;5078997;28;20208;-84
2023/06/11 02:38:48;;;;;;;;;;;;;;;;;;5082866;28;19925;-84
2023/06/11 02:41:16;;;;;;;;;;;;;;;;;;5082006;28;20396;-84
2023/06/11 02:43:48;;;;;;;;;;;;;;;;;;5094480;28;19932;-85
2023/06/11 02:46:16;;;;;;;;;;;;;;;;;;5089204;28;19920;-85
2023/06/11 02:48:44;;;;;;;;;;;;;;;;;;5076665;28;19924;-84
2023/06/11 02:51:11;;;;;;;;;;;;;;;;;;5081812;28;19931;-85
2023/06/11 02:53:39;;;;;;;;;;;;;;;;;;5080325;28;20277;-85
2023/06/11 02:56:12;;;;;;;;;;;;;;;;;;5082731;28;19924;-85
2023/06/11 02:58:47;;;;;;;;;;;;;;;;;;5078454;28;19932;-85
2023/06/11 03:01:14;;;;;;;;;;;;;;;;;;5101021;28;19924;-85
2023/06/11 03:03:42;;;;;;;;;;;;;;;;;;5081504;28;19920;-85
2023/06/11 03:06:10;;;;;;;;;;;;;;;;;;5076101;28;19946;-85
2023/06/11 03:08:38;;;;;;;;;;;;;;;;;;5079872;28;19924;-84
2023/06/11 03:11:10;;;;;;;;;;;;;;;;;;5080517;28;19927;-85
2023/06/11 03:13:43;;;;;;;;;;;;;;;;;;5078974;28;19921;-85
2023/06/11 03:16:10;;;;;;;;;;;;;;;;;;5094644;28;19920;-85
2023/06/11 03:18:43;;;;;;;;;;;;;;;;;;5080829;28;20388;-84
2023/06/11 03:21:10;;;;;;;;;;;;;;;;;;5097721;28;19924;-84
2023/06/11 03:23:38;;;;;;;;;;;;;;;;;;5079403;28;19927;-85
2023/06/11 03:26:05;;;;;;;;;;;;;;;;;;5080806;28;19924;-84
2023/06/11 03:28:43;;;;;;;;;;;;;;;;;;5081699;28;20272;-84
2023/06/11 03:31:18;;;;;;;;;;;;;;;;;;5079047;28;19927;-84
2023/06/11 03:33:50;;;;;;;;;;;;;;;;;;5078078;28;19926;-84
2023/06/11 03:36:20;;;;;;;;;;;;;;;;;;5082161;28;20284;-85
2023/06/11 03:38:53;;;;;;;;;;;;;;;;;;5079484;28;19928;-83
2023/06/11 03:41:21;;;;;;;;;;;;;;;;;;5081197;28;20372;-84
2023/06/11 03:43:49;;;;;;;;;;;;;;;;;;5077549;28;19924;-85
2023/06/11 03:46:17;;;;;;;;;;;;;;;;;;5078691;28;19920;-84
2023/06/11 03:48:49;;;;;;;;;;;;;;;;;;5085690;28;19924;-84
2023/06/11 03:51:17;;;;;;;;;;;;;;;;;;5071063;28;19927;-84
2023/06/11 03:53:45;;;;;;;;;;;;;;;;;;5089349;28;20372;-84
2023/06/11 03:56:12;;;;;;;;;;;;;;;;;;5082049;28;19928;-84
2023/06/11 03:58:40;;;;;;;;;;;;;;;;;;5084150;28;20403;-84
2023/06/11 04:01:07;;;;;;;;;;;;;;;;;;5096269;28;19931;-85
2023/06/11 04:03:35;;;;;;;;;;;;;;;;;;5077206;28;19921;-85
2023/06/11 04:06:02;;;;;;;;;;;;;;;;;;5091054;28;19924;-84
2023/06/11 04:08:30;;;;;;;;;;;;;;;;;;5080765;28;19932;-84
2023/06/11 04:10:57;;;;;;;;;;;;;;;;;;5077666;28;19920;-84
2023/06/11 04:13:25;;;;;;;;;;;;;;;;;;5084175;28;20365;-84
2023/06/11 04:15:53;;;;;;;;;;;;;;;;;;5084005;28;19923;-85
2023/06/11 04:18:25;;;;;;;;;;;;;;;;;;5089464;28;19927;-85
2023/06/11 04:20:54;;;;;;;;;;;;;;;;;;5083410;28;20573;-84
2023/06/11 04:23:27;;;;;;;;;;;;;;;;;;5085001;28;19924;-85
2023/06/11 04:25:57;;;;;;;;;;;;;;;;;;5081895;28;19924;-83
2023/06/11 04:28:26;;;;;;;;;;;;;;;;;;5091489;28;19928;-85
2023/06/11 04:30:57;;;;;;;;;;;;;;;;;;5076919;28;19935;-85
2023/06/11 04:33:32;;;;;;;;;;;;;;;;;;5089949;28;19935;-84
2023/06/11 04:36:07;;;;;;;;;;;;;;;;;;5093115;28;20534;-85
2023/06/11 04:38:36;;;;;;;;;;;;;;;;;;5082821;28;19927;-86
2023/06/11 04:41:05;;;;;;;;;;;;;;;;;;5080791;28;19927;-84
2023/06/11 04:43:38;;;;;;;;;;;;;;;;;;5082437;28;19936;-84
2023/06/11 04:46:06;;;;;;;;;;;;;;;;;;5079355;28;19928;-85
2023/06/11 04:48:34;;;;;;;;;;;;;;;;;;5078685;28;19920;-84
2023/06/11 04:51:02;;;;;;;;;;;;;;;;;;5081506;28;19939;-85
2023/06/11 04:53:37;;;;;;;;;;;;;;;;;;5079939;28;19924;-85
2023/06/11 04:56:06;;;;;;;;;;;;;;;;;;5084479;28;19920;-85
2023/06/11 04:58:39;;;;;;;;;;;;;;;;;;5083710;28;19920;-83
2023/06/11 05:01:08;;;;;;;;;;;;;;;;;;5078757;28;20285;-83
2023/06/11 05:03:41;;;;;;;;;;;;;;;;;;5077728;28;19920;-83
2023/06/11 05:06:14;;;;;;;;;;;;;;;;;;5087345;28;19938;-85
2023/06/11 05:08:45;;;;;;;;;;;;;;;;;;5085204;28;19927;-84
2023/06/11 05:11:12;;;;;;;;;;;;;;;;;;5083513;28;19927;-85
2023/06/11 05:13:40;;;;;;;;;;;;;;;;;;5081935;28;19928;-84
2023/06/11 05:16:09;;;;;;;;;;;;;;;;;;5080738;28;20361;-84
2023/06/11 05:18:37;;;;;;;;;;;;;;;;;;5084913;28;19931;-84
2023/06/11 05:21:06;;;;;;;;;;;;;;;;;;5087530;28;19927;-83
2023/06/11 05:23:39;;;;;;;;;;;;;;;;;;5087250;28;19927;-83
2023/06/11 05:26:12;;;;;;;;;;;;;;;;;;5078255;28;19926;-87
2023/06/11 05:28:42;;;;;;;;;;;;;;;;;;5083775;28;19924;-85
2023/06/11 05:31:12;;;;;;;;;;;;;;;;;;5081234;28;19932;-85
2023/06/11 05:33:48;;;;;;;;;;;;;;;;;;5079157;28;19922;-83
2023/06/11 05:36:16;;;;;;;;;;;;;;;;;;5080514;28;19920;-83
2023/06/11 05:38:44;;;;;;;;;;;;;;;;;;5084133;28;19924;-83
2023/06/11 05:41:11;;;;;;;;;;;;;;;;;;5087746;28;19924;-83
2023/06/11 05:43:39;;;;;;;;;;;;;;;;;;5082551;28;19920;-83
2023/06/11 05:46:07;;;;;;;;;;;;;;;;;;5078444;28;19924;-86
2023/06/11 05:48:35;;;;;;;;;;;;;;;;;;5088717;28;19920;-83
2023/06/11 05:51:03;;;;;;;;;;;;;;;;;;5089039;28;19931;-82
2023/06/11 05:53:30;;;;;;;;;;;;;;;;;;5082935;28;19924;-82
2023/06/11 05:56:03;;;;;;;;;;;;;;;;;;5090604;28;19927;-82
2023/06/11 05:58:32;;;;;;;;;;;;;;;;;;5080713;28;19920;-82
2023/06/11 06:01:02;;;;;;;;;;;;;;;;;;5085048;28;20301;-84
2023/06/11 06:03:37;;;;;;;;;;;;;;;;;;5079344;28;19932;-81
2023/06/11 06:06:08;;;;;;;;;;;;;;;;;;5085817;28;19928;-83
2023/06/11 06:08:41;;;;;;;;;;;;;;;;;;5087474;28;19931;-84
2023/06/11 06:11:09;;;;;;;;;;;;;;;;;;5078600;28;20314;-85
2023/06/11 06:13:37;;;;;;;;;;;;;;;;;;5079540;28;19928;-83
2023/06/11 06:16:11;;;;;;;;;;;;;;;;;;5080951;28;19943;-84
2023/06/11 06:18:44;;;;;;;;;;;;;;;;;;5078154;28;19924;-83
2023/06/11 06:21:11;;;;;;;;;;;;;;;;;;5086228;28;19924;-85
2023/06/11 06:23:39;;;;;;;;;;;;;;;;;;5084770;28;20389;-83
2023/06/11 06:26:12;;;;;;;;;;;;;;;;;;5077065;28;19938;-82
2023/06/11 06:28:40;;;;;;;;;;;;;;;;;;5089362;28;20317;-82
2023/06/11 06:31:12;;;;;;;;;;;;;;;;;;5078065;28;20732;-83
2023/06/11 06:33:45;;;;;;;;;;;;;;;;;;5092486;28;19928;-82
2023/06/11 06:36:14;;;;;;;;;;;;;;;;;;5081737;28;19948;-84
2023/06/11 06:38:41;;;;;;;;;;;;;;;;;;5078566;28;19924;-84
2023/06/11 06:41:14;;;;;;;;;;;;;;;;;;5079578;28;19925;-85
2023/06/11 06:43:42;;;;;;;;;;;;;;;;;;5087065;28;19935;-82
2023/06/11 06:46:13;;;;;;;;;;;;;;;;;;5084455;28;19924;-81
2023/06/11 06:48:47;;;;;;;;;;;;;;;;;;5075570;28;19967;-83
2023/06/11 06:51:16;;;;;;;;;;;;;;;;;;5079979;28;19925;-83
2023/06/11 06:53:45;;;;;;;;;;;;;;;;;;5076205;28;19929;-82
2023/06/11 06:56:13;;;;;;;;;;;;;;;;;;5074960;28;19925;-83
2023/06/11 06:58:46;;;;;;;;;;;;;;;;;;5079661;28;19955;-84
2023/06/11 07:01:13;;;;;;;;;;;;;;;;;;5077909;28;19924;-84
2023/06/11 07:03:46;;;;;;;;;;;;;;;;;;5081045;28;19936;-84
2023/06/11 07:06:19;;;;;;;;;;;;;;;;;;5078732;28;19932;-84
2023/06/11 07:08:47;;;;;;;;;;;;;;;;;;5078909;28;20605;-83
2023/06/11 07:11:15;;;;;;;;;;;;;;;;;;5082581;28;20399;-82
2023/06/11 07:13:45;;;;;;;;;;;;;;;;;;5081843;28;20311;-83
2023/06/11 07:16:12;;;;;;;;;;;;;;;;;;5080730;28;19924;-88
2023/06/11 07:18:44;;;;;;;;;;;;;;;;;;5080663;28;19935;-85
2023/06/11 07:21:12;;;;;;;;;;;;;;;;;;5076154;28;20010;-83
2023/06/11 07:23:40;;;;;;;;;;;;;;;;;;5092873;28;20418;-81
2023/06/11 07:26:08;;;;;;;;;;;;;;;;;;5077213;28;19928;-83
2023/06/11 07:28:35;;;;;;;;;;;;;;;;;;5082476;28;19924;-84
2023/06/11 07:31:03;;;;;;;;;;;;;;;;;;5080482;28;19935;-83
2023/06/11 07:33:36;;;;;;;;;;;;;;;;;;5082403;28;19946;-82
2023/06/11 07:36:03;;;;;;;;;;;;;;;;;;5075336;28;19932;-82
2023/06/11 07:38:31;;;;;;;;;;;;;;;;;;5079830;28;19932;-83
2023/06/11 07:41:01;;;;;;;;;;;;;;;;;;5064999;28;19932;-82
2023/06/11 07:43:29;;;;;;;;;;;;;;;;;;5063672;28;19932;-83
2023/06/11 07:46:03;;;;;;;;;;;;;;;;;;5066492;28;20459;-82
2023/06/11 07:48:41;;;;;;;;;;;;;;;;;;5062157;28;19932;-83
2023/06/11 07:51:09;;;;;;;;;;;;;;;;;;5064393;28;20707;-84
2023/06/11 07:53:37;;;;;;;;;;;;;;;;;;5066221;28;19932;-83
2023/06/11 07:56:09;;;;;;;;;;;;;;;;;;5064123;28;19932;-83
2023/06/11 07:58:37;;;;;;;;;;;;;;;;;;5066683;28;19939;-83
2023/06/11 08:01:09;;;;;;;;;;;;;;;;;;5061992;28;19990;-82
2023/06/11 08:03:42;;;;;;;;;;;;;;;;;;5063342;28;19936;-83
2023/06/11 08:06:15;;;;;;;;;;;;;;;;;;5062545;28;19932;-83
2023/06/11 08:08:47;;;;;;;;;;;;;;;;;;5070804;28;20435;-84
2023/06/11 08:11:15;;;;;;;;;;;;;;;;;;5064738;28;19939;-82
2023/06/11 08:13:43;;;;;;;;;;;;;;;;;;5063510;28;20297;-83
2023/06/11 08:16:17;;;;;;;;;;;;;;;;;;5062628;28;19932;-83
2023/06/11 08:18:44;;;;;;;;;;;;;;;;;;5071237;28;19943;-84
2023/06/11 08:21:12;;;;;;;;;;;;;;;;;;5068804;28;20576;-83
2023/06/11 08:23:39;;;;;;;;;;;;;;;;;;5067446;28;21500;-83
2023/06/11 08:26:12;;;;;;;;;;;;;;;;;;5062054;28;20292;-82
2023/06/11 08:28:44;;;;;;;;;;;;;;;;;;5067897;28;19947;-83
2023/06/11 08:31:12;;;;;;;;;;;;;;;;;;5073294;28;20249;-82
2023/06/11 08:33:40;;;;;;;;;;;;;;;;;;5066966;28;20323;-80
2023/06/11 08:36:07;;;;;;;;;;;;;;;;;;5065987;28;19932;-82
2023/06/11 08:38:35;;;;;;;;;;;;;;;;;;5057773;28;19944;-80
2023/06/11 08:41:03;;;;;;;;;;;;;;;;;;5063046;28;20584;-83
2023/06/11 08:43:30;;;;;;;;;;;;;;;;;;5061603;28;19928;-79
2023/06/11 08:45:58;;;;;;;;;;;;;;;;;;5062868;28;20773;-82
2023/06/11 08:48:26;;;;;;;;;;;;;;;;;;5067078;28;19932;-82
2023/06/11 08:50:53;;;;;;;;;;;;;;;;;;5063991;28;20487;-82
2023/06/11 08:53:21;;;;;;;;;;;;;;;;;;5063582;28;20359;-82
2023/06/11 08:55:53;;;;;;;;;;;;;;;;;;5064902;28;19932;-81
2023/06/11 08:58:22;;;;;;;;;;;;;;;;;;5065311;28;20554;-81
2023/06/11 09:00:50;;;;;;;;;;;;;;;;;;5064379;28;19924;-81
2023/06/11 09:03:17;;;;;;;;;;;;;;;;;;5063176;28;19939;-81
2023/06/11 09:05:46;;;;;;;;;;;;;;;;;;5062820;28;20453;-82
2023/06/11 09:08:13;;;;;;;;;;;;;;;;;;5069189;28;19932;-82
2023/06/11 09:10:46;;;;;;;;;;;;;;;;;;5062487;28;19932;-83
2023/06/11 09:13:18;;;;;;;;;;;;;;;;;;5060741;28;19939;-82
2023/06/11 09:15:46;;;;;;;;;;;;;;;;;;5061804;28;19928;-81
2023/06/11 09:18:14;;;;;;;;;;;;;;;;;;5059650;28;19928;-82
2023/06/11 09:20:46;;;;;;;;;;;;;;;;;;5069979;28;19939;-81
2023/06/11 09:23:14;;;;;;;;;;;;;;;;;;5061068;28;19932;-80
2023/06/11 09:25:47;;;;;;;;;;;;;;;;;;5065439;28;19932;-82
2023/06/11 09:28:19;;;;;;;;;;;;;;;;;;5065790;28;19932;-81
2023/06/11 09:30:47;;;;;;;;;;;;;;;;;;5057697;28;20598;-81
2023/06/11 09:33:14;;;;;;;;;;;;;;;;;;5061236;28;19939;-83
2023/06/11 09:35:47;;;;;;;;;;;;;;;;;;5064302;28;19932;-80
2023/06/11 09:38:19;;;;;;;;;;;;;;;;;;5062610;28;19932;-81
2023/06/11 09:40:47;;;;;;;;;;;;;;;;;;5059752;28;19932;-83
2023/06/11 09:43:15;;;;;;;;;;;;;;;;;;5059682;28;19943;-81
2023/06/11 09:45:42;;;;;;;;;;;;;;;;;;5060945;28;19932;-80
2023/06/11 09:48:10;;;;;;;;;;;;;;;;;;5068052;28;19932;-81
2023/06/11 09:50:37;;;;;;;;;;;;;;;;;;5069076;28;19932;-82
2023/06/11 09:53:10;;;;;;;;;;;;;;;;;;5063302;28;19932;-82
2023/06/11 09:55:37;;;;;;;;;;;;;;;;;;5064993;28;19943;-83
2023/06/11 09:58:10;;;;;;;;;;;;;;;;;;5063684;28;20005;-81
2023/06/11 10:00:38;;;;;;;;;;;;;;;;;;5057313;28;19932;-81
2023/06/11 10:03:11;;;;;;;;;;;;;;;;;;5057973;28;20630;-81
2023/06/11 10:05:38;;;;;;;;;;;;;;;;;;5063935;28;19932;-82
2023/06/11 10:08:12;;;;;;;;;;;;;;;;;;5060326;28;20323;-81
2023/06/11 10:10:39;;;;;;;;;;;;;;;;;;5070328;28;19932;-82
2023/06/11 10:13:07;;;;;;;;;;;;;;;;;;5063881;28;19932;-81
2023/06/11 10:15:34;;;;;;;;;;;;;;;;;;5067732;28;20584;-82
2023/06/11 10:18:07;;;;;;;;;;;;;;;;;;5056544;28;20610;-80
2023/06/11 10:20:40;;;;;;;;;;;;;;;;;;5060574;28;19932;-79
2023/06/11 10:23:07;;;;;;;;;;;;;;;;;;5065124;28;20419;-79
2023/06/11 10:25:35;;;;;;;;;;;;;;;;;;5062834;28;19932;-80
2023/06/11 10:28:08;;;;;;;;;;;;;;;;;;5061533;28;19939;-81
2023/06/11 10:30:35;;;;;;;;;;;;;;;;;;5058225;28;19943;-81
2023/06/11 10:33:03;;;;;;;;;;;;;;;;;;5059295;28;20557;-82
2023/06/11 10:35:36;;;;;;;;;;;;;;;;;;5062879;28;19928;-80
2023/06/11 10:38:04;;;;;;;;;;;;;;;;;;5055923;28;19932;-81
2023/06/11 10:40:37;;;;;;;;;;;;;;;;;;5065682;28;19975;-80
2023/06/11 10:43:09;;;;;;;;;;;;;;;;;;5062340;28;20362;-81
2023/06/11 10:45:38;;;;;;;;;;;;;;;;;;5059787;28;20308;-81
2023/06/11 10:48:06;;;;;;;;;;;;;;;;;;5058260;28;19928;-81
2023/06/11 10:50:38;;;;;;;;;;;;;;;;;;5062722;28;19939;-80
2023/06/11 10:53:06;;;;;;;;;;;;;;;;;;5046451;28;19932;-82
2023/06/11 10:55:34;;;;;;;;;;;;;;;;;;5060650;28;20304;-80
2023/06/11 10:58:02;;;;;;;;;;;;;;;;;;5061594;28;19924;-83
2023/06/11 11:00:32;;;;;;;;;;;;;;;;;;5067384;28;19932;-82
2023/06/11 11:03:00;;;;;;;;;;;;;;;;;;5069085;28;19939;-80
2023/06/11 11:05:32;;;;;;;;;;;;;;;;;;5070268;28;19932;-82
2023/06/11 11:08:05;;;;;;;;;;;;;;;;;;5063095;28;19928;-82
2023/06/11 11:10:32;;;;;;;;;;;;;;;;;;5064797;28;20757;-81
2023/06/11 11:13:00;;;;;;;;;;;;;;;;;;5064292;28;19955;-82
2023/06/11 11:15:32;;;;;;;;;;;;;;;;;;5063572;28;20161;-82
2023/06/11 11:18:00;;;;;;;;;;;;;;;;;;5071162;28;19932;-81
2023/06/11 11:20:28;;;;;;;;;;;;;;;;;;5062908;28;19932;-81
2023/06/11 11:22:56;;;;;;;;;;;;;;;;;;5063915;28;19939;-80
2023/06/11 11:25:29;;;;;;;;;;;;;;;;;;5063871;28;20313;-81
2023/06/11 11:28:02;;;;;;;;;;;;;;;;;;5066792;28;20195;-80
2023/06/11 11:30:29;;;;;;;;;;;;;;;;;;5069825;28;19935;-80
2023/06/11 11:32:57;;;;;;;;;;;;;;;;;;5076594;28;20427;-80
2023/06/11 11:35:26;;;;;;;;;;;;;;;;;;5037272;27;19928;-81
2023/06/11 11:37:54;;;;;;;;;;;;;;;;;;5064757;28;19943;-80
2023/06/11 11:40:22;;;;;;;;;;;;;;;;;;5071240;28;19932;-80
2023/06/11 11:42:55;;;;;;;;;;;;;;;;;;5061662;28;20419;-81
2023/06/11 11:45:27;;;;;;;;;;;;;;;;;;5073005;28;19939;-81
2023/06/11 11:47:55;;;;;;;;;;;;;;;;;;5064984;28;19932;-80
2023/06/11 11:50:25;;;;;;;;;;;;;;;;;;5070170;28;19943;-82
2023/06/11 11:53:02;;;;;;;;;;;;;;;;;;5070412;28;20557;-81
2023/06/11 11:55:30;;;;;;;;;;;;;;;;;;5063559;28;19932;-81
2023/06/11 11:58:03;;;;;;;;;;;;;;;;;;5071032;28;21191;-80
2023/06/11 12:00:35;;;;;;;;;;;;;;;;;;5073141;28;19932;-82
2023/06/11 12:03:03;;;;;;;;;;;;;;;;;;5067211;28;21310;-80
2023/06/11 12:05:30;;;;;;;;;;;;;;;;;;5064752;28;19931;-83
2023/06/11 12:08:03;;;;;;;;;;;;;;;;;;5070028;28;19932;-82
2023/06/11 12:10:35;;;;;;;;;;;;;;;;;;5068223;28;20624;-83
2023/06/11 12:13:03;;;;;;;;;;;;;;;;;;5065513;28;19932;-83
2023/06/11 12:15:31;;;;;;;;;;;;;;;;;;5059097;28;19932;-83
2023/06/11 12:18:03;;;;;;;;;;;;;;;;;;5067601;28;19932;-82
2023/06/11 12:20:31;;;;;;;;;;;;;;;;;;5071977;28;19943;-84
2023/06/11 12:23:03;;;;;;;;;;;;;;;;;;5071327;28;21261;-82
2023/06/11 12:25:36;;;;;;;;;;;;;;;;;;5070691;28;19928;-83
2023/06/11 12:28:03;;;;;;;;;;;;;;;;;;5069839;28;19940;-82
2023/06/11 12:30:31;;;;;;;;;;;;;;;;;;5062286;28;19936;-82
2023/06/11 12:33:03;;;;;;;;;;;;;;;;;;5065805;28;19932;-82
2023/06/11 12:35:36;;;;;;;;;;;;;;;;;;5031844;28;19932;-81
2023/06/11 12:38:04;;;;;;;;;;;;;;;;;;5058306;28;19932;-81
2023/06/11 12:40:37;;;;;;;;;;;;;;;;;;5068709;28;19932;-82
2023/06/11 12:43:10;;;;;;;;;;;;;;;;;;5060185;28;19931;-81
2023/06/11 12:45:42;;;;;;;;;;;;;;;;;;5072535;28;19931;-84
2023/06/11 12:48:11;;;;;;;;;;;;;;;;;;5068747;28;19932;-82
2023/06/11 12:50:44;;;;;;;;;;;;;;;;;;5071206;28;19936;-82
2023/06/11 12:53:11;;;;;;;;;;;;;;;;;;5062735;28;21217;-82
2023/06/11 12:55:39;;;;;;;;;;;;;;;;;;5065875;28;19932;-82
2023/06/11 12:58:07;;;;;;;;;;;;;;;;;;5082362;28;20380;-82
2023/06/11 13:00:39;;;;;;;;;;;;;;;;;;5082233;28;19928;-83
2023/06/11 13:03:07;;;;;;;;;;;;;;;;;;5095522;27;19931;-85
2023/06/11 13:05:40;;;;;;;;;;;;;;;;;;5081574;28;19939;-82
2023/06/11 13:08:14;;;;;;;;;;;;;;;;;;5079462;28;19924;-81
2023/06/11 13:10:42;;;;;;;;;;;;;;;;;;5082165;28;19925;-81
2023/06/11 13:13:10;;;;;;;;;;;;;;;;;;5079781;28;19924;-79
2023/06/11 13:15:43;;;;;;;;;;;;;;;;;;5085270;28;19924;-80
2023/06/11 13:18:15;;;;;;;;;;;;;;;;;;5079491;28;19936;-80
2023/06/11 13:20:48;;;;;;;;;;;;;;;;;;5078299;28;20510;-80
2023/06/11 13:23:15;;;;;;;;;;;;;;;;;;5075795;28;19924;-81
2023/06/11 13:25:43;;;;;;;;;;;;;;;;;;5079595;28;19939;-81
2023/06/11 13:28:11;;;;;;;;;;;;;;;;;;5077232;28;19924;-81
2023/06/11 13:30:38;;;;;;;;;;;;;;;;;;5081641;28;19932;-84
2023/06/11 13:33:06;;;;;;;;;;;;;;;;;;5082361;28;19925;-81
2023/06/11 13:35:33;;;;;;;;;;;;;;;;;;5082719;28;20309;-84
2023/06/11 13:38:01;;;;;;;;;;;;;;;;;;5088064;28;19924;-84
2023/06/11 13:40:33;;;;;;;;;;;;;;;;;;5072547;28;19924;-84
2023/06/11 13:43:01;;;;;;;;;;;;;;;;;;5077321;28;19936;-86
2023/06/11 13:45:28;;;;;;;;;;;;;;;;;;5079999;28;20376;-83
2023/06/11 13:48:01;;;;;;;;;;;;;;;;;;5077632;28;20395;-82
2023/06/11 13:50:34;;;;;;;;;;;;;;;;;;5080042;28;19935;-81
2023/06/11 13:53:01;;;;;;;;;;;;;;;;;;5079447;28;19928;-83
2023/06/11 13:55:34;;;;;;;;;;;;;;;;;;5077496;28;19925;-84
2023/06/11 13:58:07;;;;;;;;;;;;;;;;;;5079449;28;19935;-82
2023/06/11 14:00:39;;;;;;;;;;;;;;;;;;5080167;28;19936;-83
2023/06/11 14:03:07;;;;;;;;;;;;;;;;;;5095675;28;19929;-83
2023/06/11 14:05:39;;;;;;;;;;;;;;;;;;5093902;28;20388;-84
2023/06/11 14:08:07;;;;;;;;;;;;;;;;;;5081581;28;19931;-81
2023/06/11 14:10:35;;;;;;;;;;;;;;;;;;5076544;28;20304;-83
2023/06/11 14:13:02;;;;;;;;;;;;;;;;;;5082980;28;20345;-81
2023/06/11 14:15:30;;;;;;;;;;;;;;;;;;5078916;28;19928;-82
2023/06/11 14:17:58;;;;;;;;;;;;;;;;;;5081692;28;20294;-86
2023/06/11 14:20:25;;;;;;;;;;;;;;;;;;5082614;28;19932;-80
2023/06/11 14:22:57;;;;;;;;;;;;;;;;;;5078494;28;19924;-82
2023/06/11 14:25:26;;;;;;;;;;;;;;;;;;5081030;28;19935;-81
2023/06/11 14:27:58;;;;;;;;;;;;;;;;;;5081075;28;19928;-81
2023/06/11 14:30:31;;;;;;;;;;;;;;;;;;5078929;28;19935;-81
2023/06/11 14:33:04;;;;;;;;;;;;;;;;;;5083420;28;19925;-82
2023/06/11 14:35:31;;;;;;;;;;;;;;;;;;5079446;28;19928;-81
2023/06/11 14:37:59;;;;;;;;;;;;;;;;;;5079519;28;19924;-82
2023/06/11 14:40:26;;;;;;;;;;;;;;;;;;5078113;28;19928;-82
2023/06/11 14:42:54;;;;;;;;;;;;;;;;;;5079120;28;19924;-82
2023/06/11 14:45:21;;;;;;;;;;;;;;;;;;5077478;28;19929;-81
2023/06/11 14:47:49;;;;;;;;;;;;;;;;;;5078336;28;19937;-82
2023/06/11 14:50:17;;;;;;;;;;;;;;;;;;5079224;28;19928;-81
2023/06/11 14:52:44;;;;;;;;;;;;;;;;;;5080882;28;19928;-80
2023/06/11 14:55:12;;;;;;;;;;;;;;;;;;5082049;28;19925;-82
2023/06/11 14:57:39;;;;;;;;;;;;;;;;;;5076640;28;19929;-80
2023/06/11 15:00:07;;;;;;;;;;;;;;;;;;5074641;28;20408;-85
2023/06/11 15:02:36;;;;;;;;;;;;;;;;;;5077313;28;19940;-85
2023/06/11 15:05:08;;;;;;;;;;;;;;;;;;5077700;28;19928;-83
2023/06/11 15:07:36;;;;;;;;;;;;;;;;;;5081291;28;19932;-82
2023/06/11 15:10:04;;;;;;;;;;;;;;;;;;5080424;28;20006;-83
2023/06/11 15:12:35;;;;;;;;;;;;;;;;;;5083222;28;19933;-81
2023/06/11 15:15:07;;;;;;;;;;;;;;;;;;5078099;28;19924;-82
2023/06/11 15:17:40;;;;;;;;;;;;;;;;;;5077009;28;19928;-81
2023/06/11 15:20:12;;;;;;;;;;;;;;;;;;5080348;28;19925;-83
2023/06/11 15:22:40;;;;;;;;;;;;;;;;;;5078827;28;19928;-82
2023/06/11 15:25:08;;;;;;;;;;;;;;;;;;5075206;28;19924;-81
2023/06/11 15:27:36;;;;;;;;;;;;;;;;;;5080745;28;19935;-82
2023/06/11 15:30:08;;;;;;;;;;;;;;;;;;5081423;28;19928;-81
2023/06/11 15:32:36;;;;;;;;;;;;;;;;;;5078241;28;19928;-83
2023/06/11 15:35:04;;;;;;;;;;;;;;;;;;5078616;28;20292;-83
2023/06/11 15:37:33;;;;;;;;;;;;;;;;;;5082390;28;19935;-82
2023/06/11 15:40:00;;;;;;;;;;;;;;;;;;5084767;28;20291;-83
2023/06/11 15:42:28;;;;;;;;;;;;;;;;;;5079882;28;19924;-84
2023/06/11 15:44:55;;;;;;;;;;;;;;;;;;5078804;28;20392;-82
2023/06/11 15:47:23;;;;;;;;;;;;;;;;;;5077037;28;19925;-82
2023/06/11 15:49:51;;;;;;;;;;;;;;;;;;5079928;28;19928;-82
2023/06/11 15:52:18;;;;;;;;;;;;;;;;;;5078219;28;19924;-83
2023/06/11 15:54:51;;;;;;;;;;;;;;;;;;5082054;28;20376;-84
2023/06/11 15:57:19;;;;;;;;;;;;;;;;;;5083871;28;19928;-84
2023/06/11 15:59:46;;;;;;;;;;;;;;;;;;5079625;28;19929;-83
2023/06/11 16:02:19;;;;;;;;;;;;;;;;;;5081745;28;20403;-83
2023/06/11 16:04:47;;;;;;;;;;;;;;;;;;5084034;28;19928;-83
2023/06/11 16:07:20;;;;;;;;;;;;;;;;;;5086592;28;19931;-83
2023/06/11 16:09:52;;;;;;;;;;;;;;;;;;5080509;28;19935;-83
2023/06/11 16:12:25;;;;;;;;;;;;;;;;;;5082035;28;19924;-82
2023/06/11 16:14:53;;;;;;;;;;;;;;;;;;5081476;28;19935;-80
2023/06/11 16:17:25;;;;;;;;;;;;;;;;;;5080057;28;19933;-82
2023/06/11 16:19:58;;;;;;;;;;;;;;;;;;5082453;28;19928;-83
2023/06/11 16:22:25;;;;;;;;;;;;;;;;;;5079677;28;19924;-84
2023/06/11 16:24:53;;;;;;;;;;;;;;;;;;5077197;28;19940;-83
2023/06/11 16:27:25;;;;;;;;;;;;;;;;;;5087996;28;19924;-83
2023/06/11 16:29:58;;;;;;;;;;;;;;;;;;5083436;28;20514;-84
2023/06/11 16:32:25;;;;;;;;;;;;;;;;;;5080347;28;19931;-83
2023/06/11 16:34:58;;;;;;;;;;;;;;;;;;5080975;28;19928;-85
2023/06/11 16:37:25;;;;;;;;;;;;;;;;;;5081987;28;19924;-84
2023/06/11 16:39:53;;;;;;;;;;;;;;;;;;5079223;28;19951;-86
2023/06/11 16:42:25;;;;;;;;;;;;;;;;;;5084257;28;19924;-84
2023/06/11 16:44:53;;;;;;;;;;;;;;;;;;5082684;28;19932;-86
2023/06/11 16:47:20;;;;;;;;;;;;;;;;;;5085230;28;21618;-82